Airfield :
LOGIN :

Register | Disclaimer

   EN    FR    IT 

 










Legend :    VFR   Marginal VFR   IFR   Intensive IFR   Very Intensive IFR
Visi :
Ceiling :
>= 8 km
>= 3000ft
5 to 8 km
1000 to 3000 ft
1500m to 5 km
500 to 1000 ft
800 to 1500m
200 to 500 ft
< 800m
< 200 ft
Symbols :   Thunderstorms  Fog  Heavy snow  Heavy precipitations  Wind > 20 kt
SIGMETs :     Misc.  Thunderstorms  Icing  Turbulence  Mountain Waves  Volcanic Ashes






- Airport Elevation : 1768 ft


LEHC - Huesca Pirineos

CURRENT METAR :
  • 151730Z AUTO 27007KT 9999 NCD 04/02 Q1001

EXPIRED METARs :
  • 151700Z AUTO 27011KT 240V300 9999 NCD 04/02 Q1000
  • 151630Z AUTO 28013KT 9999 FEW036 05/02 Q1000
  • 151600Z 27015KT 240V300 9999 FEW030 06/03 Q1000
  • 151530Z 28015KT 240V320 9999 SCT025 07/02 Q1000
  • 151500Z 27015KT 250V310 9999 SCT020 07/03 Q0999

TAF TAF LEHC
Valid from the 15 at 15:00 until the 16 at 15:00 UTC


151400Z 1515/1615 27009KT 9999 SCT030 TX09/1613Z TN00/1606Z
TEMPO 1515/1518 28012G24KT
PROB30
TEMPO 1515/1518 SCT030 FEW035TCU



MET'MAP, your aeronautical weather chart ! - Copyright ORBIFLY December 2007 - Disclaimer

ORBIFLY MET'MAP TEAM :

Programming & Development : Alexandra Zaïnal
Concept & Development : Baudouin d'Aumeries
Co-Development & Prog : Marc-Olivier Méhu
Technical & hardware support : Manuel Goepfert

Contact : metmap@orbifly.com




SOURCES & CREDITS :

   NOAA